Time;durP1;ratioP1;P1;durP2;ratioP2;P2;SDS_P1;SDS_P2;PMS_P1;PMS_P2;Temp;Humidity;BMP_temperature;BMP_pressure;BME280_temperature;BME280_humidity;BME280_pressure;Samples;Min_cycle;Max_cycle;Signal;HPM_P1;HPM_P2
2022/10/05 00:01:45;;;;;;;1.80;1.40;;;8.00;99.90;;;;;;6234813;23;20011;-80
2022/10/05 00:04:17;;;;;;;2.95;2.22;;;8.00;99.90;;;;;;6233463;23;20429;-80
2022/10/05 00:06:46;;;;;;;2.47;2.28;;;8.00;99.90;;;;;;6234428;23;20012;-79
2022/10/05 00:09:16;;;;;;;2.38;1.33;;;8.00;99.90;;;;;;6233990;22;20007;-78
2022/10/05 00:11:42;;;;;;;2.60;1.92;;;8.10;99.90;;;;;;6234828;22;20004;-79
2022/10/05 00:14:34;;;;;;;3.05;2.40;;;8.10;99.90;;;;;;6236870;23;20015;-79
2022/10/05 00:17:03;;;;;;;4.03;2.08;;;8.10;99.90;;;;;;6232027;23;20011;-86
2022/10/05 00:19:38;;;;;;;4.97;2.25;;;8.00;99.90;;;;;;6235258;23;20445;-82
2022/10/05 00:22:16;;;;;;;3.40;1.58;;;8.10;99.90;;;;;;6234400;23;20134;-82
2022/10/05 00:24:43;;;;;;;2.95;2.33;;;8.10;99.90;;;;;;6235316;23;20008;-84
2022/10/05 00:27:18;;;;;;;2.85;2.10;;;8.10;99.90;;;;;;6237337;23;20027;-82
2022/10/05 00:29:45;;;;;;;3.42;1.90;;;8.10;99.90;;;;;;6236439;22;20111;-83
2022/10/05 00:32:10;;;;;;;3.40;2.30;;;8.10;99.90;;;;;;6234253;23;20046;-83
2022/10/05 00:34:36;;;;;;;4.75;1.77;;;8.00;99.90;;;;;;6234893;23;20008;-84
2022/10/05 00:37:03;;;;;;;2.25;1.27;;;8.00;99.90;;;;;;6236639;23;20007;-83
2022/10/05 00:39:29;;;;;;;2.75;1.73;;;8.10;99.90;;;;;;6234123;23;20004;-83
2022/10/05 00:42:29;;;;;;;3.40;2.67;;;8.10;99.90;;;;;;6235799;23;20050;-84
2022/10/05 00:45:20;;;;;;;2.20;2.00;;;8.00;99.90;;;;;;6237073;22;20026;-83
2022/10/05 00:48:19;;;;;;;3.10;1.95;;;8.00;99.90;;;;;;6235608;23;20487;-84
2022/10/05 00:51:17;;;;;;;4.78;2.00;;;8.00;99.90;;;;;;6235932;23;20083;-83
2022/10/05 00:53:48;;;;;;;4.78;1.60;;;8.00;99.90;;;;;;6151136;23;20041;-83
2022/10/05 00:56:45;;;;;;;6.13;1.30;;;8.00;99.90;;;;;;6233892;22;19996;-83
2022/10/05 00:59:48;;;;;;;1.75;0.75;;;7.90;99.90;;;;;;6237005;22;20010;-81
2022/10/05 01:02:38;;;;;;;0.70;0.68;;;7.90;99.90;;;;;;6234534;22;20000;-83
2022/10/05 01:05:16;;;;;;;2.97;0.90;;;7.80;99.90;;;;;;6235928;23;20366;-84
2022/10/05 01:07:44;;;;;;;1.33;0.70;;;7.70;99.90;;;;;;6236241;23;20478;-82
2022/10/05 01:10:45;;;;;;;1.67;0.82;;;7.70;99.90;;;;;;6232555;22;20109;-80
2022/10/05 01:13:19;;;;;;;1.58;1.30;;;7.70;99.90;;;;;;6215110;23;20082;-64
2022/10/05 01:15:54;;;;;;;1.60;1.08;;;7.80;99.90;;;;;;6235807;23;20150;-64
2022/10/05 01:18:43;;;;;;;4.28;1.40;;;7.90;99.90;;;;;;6234064;23;20624;-64
2022/10/05 01:21:20;;;;;;;1.88;1.00;;;7.90;99.90;;;;;;6231314;23;20083;-64
2022/10/05 01:23:58;;;;;;;1.00;0.45;;;7.70;99.90;;;;;;6229383;23;20065;-64
2022/10/05 01:26:48;;;;;;;1.08;0.50;;;7.60;99.90;;;;;;6233498;23;20202;-64
2022/10/05 01:29:19;;;;;;;0.68;0.50;;;7.50;99.90;;;;;;6231458;22;20015;-64
2022/10/05 01:32:30;;;;;;;1.08;0.70;;;7.40;99.90;;;;;;6231786;23;20475;-64
2022/10/05 01:35:09;;;;;;;2.00;1.00;;;7.40;99.90;;;;;;6140525;23;20014;-64
2022/10/05 01:37:50;;;;;;;2.22;0.90;;;7.40;99.90;;;;;;6135601;23;20055;-63
2022/10/05 01:40:26;;;;;;;2.35;0.50;;;7.40;99.90;;;;;;6202575;22;20008;-64
2022/10/05 01:43:36;;;;;;;0.63;0.50;;;7.30;99.90;;;;;;6232441;23;20474;-64
2022/10/05 01:46:20;;;;;;;1.52;0.57;;;7.20;99.90;;;;;;6208182;22;20099;-64
2022/10/05 01:49:04;;;;;;;1.33;0.60;;;7.20;99.90;;;;;;6230009;23;20003;-64
2022/10/05 01:52:03;;;;;;;1.15;0.65;;;7.20;99.90;;;;;;6229374;23;20004;-76
2022/10/05 01:54:53;;;;;;;2.53;1.00;;;7.20;99.90;;;;;;6232753;23;20015;-76
2022/10/05 01:57:50;;;;;;;2.10;0.68;;;7.20;99.90;;;;;;6232053;23;20004;-77
2022/10/05 02:00:17;;;;;;;1.35;1.00;;;7.10;99.90;;;;;;6230087;23;20004;-76
2022/10/05 02:02:51;;;;;;;3.17;1.05;;;7.10;99.90;;;;;;6231247;23;20004;-76
2022/10/05 02:05:21;;;;;;;0.98;0.90;;;7.20;99.90;;;;;;6233307;23;20012;-77
2022/10/05 02:08:17;;;;;;;1.42;0.88;;;7.30;99.90;;;;;;6235181;23;20007;-76
2022/10/05 02:10:54;;;;;;;4.03;1.40;;;7.20;99.90;;;;;;6230220;22;20179;-76
2022/10/05 02:13:31;;;;;;;2.97;1.10;;;7.10;99.90;;;;;;6235005;23;20060;-76
2022/10/05 02:16:07;;;;;;;1.90;1.08;;;7.10;99.90;;;;;;6233909;23;20091;-76
2022/10/05 02:18:39;;;;;;;2.92;1.30;;;7.00;99.90;;;;;;6231952;23;20011;-77
2022/10/05 02:21:07;;;;;;;2.97;1.20;;;7.10;99.90;;;;;;6233742;23;20018;-77
2022/10/05 02:23:37;;;;;;;2.67;1.50;;;7.10;99.90;;;;;;6232263;23;20039;-76
2022/10/05 02:26:05;;;;;;;1.40;1.10;;;7.10;99.90;;;;;;6234139;23;20069;-76
2022/10/05 02:28:56;;;;;;;4.93;1.10;;;7.10;99.90;;;;;;6235450;23;20062;-76
2022/10/05 02:31:27;;;;;;;2.73;1.00;;;7.20;99.90;;;;;;6233673;23;20429;-77
2022/10/05 02:34:22;;;;;;;2.42;1.20;;;7.20;99.90;;;;;;6234039;23;20003;-77
2022/10/05 02:37:11;;;;;;;3.83;2.10;;;7.30;99.90;;;;;;6232940;22;20019;-76
2022/10/05 02:39:46;;;;;;;3.63;1.20;;;7.30;99.90;;;;;;6217322;23;20023;-76
2022/10/05 02:42:37;;;;;;;6.32;1.60;;;7.30;99.90;;;;;;6232158;23;20076;-75
2022/10/05 02:45:25;;;;;;;2.50;1.10;;;7.30;99.90;;;;;;6222323;23;20020;-76
2022/10/05 02:48:29;;;;;;;2.53;1.33;;;7.30;99.90;;;;;;6232171;23;20010;-76
2022/10/05 02:51:00;;;;;;;3.70;1.42;;;7.30;99.90;;;;;;6197256;22;20016;-64
2022/10/05 02:54:03;;;;;;;4.35;1.30;;;7.30;99.90;;;;;;6230843;23;20008;-64
2022/10/05 02:56:47;;;;;;;3.67;1.40;;;7.20;99.90;;;;;;6155644;22;20004;-64
2022/10/05 02:59:30;;;;;;;5.80;1.77;;;7.20;99.90;;;;;;6233956;23;20008;-64
2022/10/05 03:02:05;;;;;;;2.85;1.60;;;7.30;99.90;;;;;;6234965;23;20023;-64
2022/10/05 03:05:10;;;;;;;2.42;2.20;;;7.20;99.90;;;;;;6234743;23;20019;-64
2022/10/05 03:07:47;;;;;;;3.33;2.45;;;7.20;99.90;;;;;;6234394;23;20001;-77
2022/10/05 03:10:25;;;;;;;2.67;1.90;;;7.00;99.90;;;;;;6233252;22;20004;-77
2022/10/05 03:13:08;;;;;;;1.63;1.50;;;6.90;99.90;;;;;;6233576;23;20011;-77
2022/10/05 03:16:06;;;;;;;4.22;1.67;;;6.80;99.90;;;;;;6235078;23;20050;-77
2022/10/05 03:18:46;;;;;;;2.10;1.90;;;6.80;99.90;;;;;;6234992;23;20015;-76
2022/10/05 03:21:22;;;;;;;2.10;1.70;;;6.80;99.90;;;;;;6233283;23;20024;-76
2022/10/05 03:24:17;;;;;;;2.10;1.70;;;6.70;99.90;;;;;;6233686;23;20016;-76
2022/10/05 03:26:54;;;;;;;4.13;1.80;;;6.70;99.90;;;;;;6233205;23;20443;-76
2022/10/05 03:29:24;;;;;;;2.67;1.58;;;6.70;99.90;;;;;;6232060;23;20035;-76
2022/10/05 03:31:55;;;;;;;1.33;1.00;;;6.70;99.90;;;;;;6233911;23;20084;-76
2022/10/05 03:35:04;;;;;;;1.20;1.10;;;6.60;99.90;;;;;;6231711;23;20097;-76
2022/10/05 03:37:40;;;;;;;3.53;1.20;;;6.40;99.90;;;;;;6138432;23;20529;-76
2022/10/05 03:40:17;;;;;;;1.27;1.17;;;6.30;99.90;;;;;;6137896;23;20358;-75
2022/10/05 03:43:16;;;;;;;1.38;1.25;;;6.30;99.90;;;;;;6200207;22;20095;-76
2022/10/05 03:46:20;;;;;;;1.70;1.55;;;6.40;99.90;;;;;;6231994;23;20263;-64
2022/10/05 03:49:21;;;;;;;2.15;1.45;;;6.50;99.90;;;;;;6184423;23;20018;-64
2022/10/05 03:52:13;;;;;;;5.90;1.20;;;6.50;99.90;;;;;;6232278;23;20016;-64
2022/10/05 03:54:46;;;;;;;3.30;0.80;;;6.50;99.90;;;;;;6197775;22;20008;-64
2022/10/05 03:57:39;;;;;;;0.90;0.90;;;6.40;99.90;;;;;;6232499;23;20008;-64
2022/10/05 04:00:13;;;;;;;2.80;1.38;;;6.30;99.90;;;;;;6228323;23;20023;-65
2022/10/05 04:02:56;;;;;;;3.08;1.27;;;6.30;99.90;;;;;;6233747;22;20004;-64
2022/10/05 04:05:28;;;;;;;1.77;1.10;;;6.30;99.90;;;;;;6231759;23;20848;-64
2022/10/05 04:08:03;;;;;;;2.47;1.25;;;6.30;99.90;;;;;;6235413;23;20011;-63
2022/10/05 04:10:41;;;;;;;1.90;1.30;;;6.40;99.90;;;;;;6236476;22;20051;-64
2022/10/05 04:13:28;;;;;;;4.28;1.27;;;6.40;99.90;;;;;;6234916;23;20015;-64
2022/10/05 04:15:54;;;;;;;3.90;1.92;;;6.40;99.90;;;;;;6234807;22;20004;-64
2022/10/05 04:18:37;;;;;;;2.00;1.60;;;6.40;99.90;;;;;;6234276;23;20028;-64
2022/10/05 04:21:12;;;;;;;2.53;2.22;;;6.50;99.90;;;;;;6235573;23;20008;-76
2022/10/05 04:23:52;;;;;;;2.50;1.75;;;6.50;99.90;;;;;;6236919;23;20091;-76
2022/10/05 04:26:23;;;;;;;2.20;2.00;;;6.50;99.90;;;;;;6235155;23;20048;-76
2022/10/05 04:29:21;;;;;;;2.00;1.55;;;6.40;99.90;;;;;;6234083;23;20062;-76
2022/10/05 04:31:55;;;;;;;2.20;1.58;;;6.40;99.90;;;;;;6235421;23;20319;-78
2022/10/05 04:34:36;;;;;;;3.95;1.30;;;6.40;99.90;;;;;;6233402;23;20012;-80
2022/10/05 04:37:12;;;;;;;1.25;0.90;;;6.40;99.90;;;;;;6233682;23;20166;-81
2022/10/05 04:40:06;;;;;;;1.17;0.70;;;6.40;99.90;;;;;;6231881;23;20007;-80
2022/10/05 04:43:02;;;;;;;1.83;0.73;;;6.30;99.90;;;;;;6234008;23;20004;-81
2022/10/05 04:45:49;;;;;;;2.15;1.17;;;6.10;99.90;;;;;;6223910;23;20012;-81
2022/10/05 04:48:30;;;;;;;2.45;1.10;;;6.00;99.90;;;;;;6233880;23;20032;-81
2022/10/05 04:51:18;;;;;;;5.70;1.30;;;6.10;99.90;;;;;;6232789;23;20000;-81
2022/10/05 04:53:44;;;;;;;1.27;0.95;;;6.10;99.90;;;;;;6231675;22;20020;-82
2022/10/05 04:56:39;;;;;;;6.13;1.10;;;6.20;99.90;;;;;;6231779;23;20066;-83
2022/10/05 04:59:26;;;;;;;3.22;1.33;;;6.20;99.90;;;;;;6195042;23;20020;-79
2022/10/05 05:02:00;;;;;;;1.60;1.00;;;6.30;99.90;;;;;;6230431;23;20008;-78
2022/10/05 05:04:26;;;;;;;2.70;1.20;;;6.30;99.90;;;;;;6233355;23;20008;-80
2022/10/05 05:07:09;;;;;;;5.72;1.70;;;6.40;99.90;;;;;;6230129;23;20012;-83
2022/10/05 05:09:45;;;;;;;4.63;0.98;;;6.30;99.90;;;;;;6232072;22;20004;-82
2022/10/05 05:12:52;;;;;;;2.60;0.95;;;6.30;99.90;;;;;;6232006;23;20057;-82
2022/10/05 05:15:36;;;;;;;2.42;0.73;;;6.30;99.90;;;;;;6228612;23;20107;-80
2022/10/05 05:18:39;;;;;;;6.15;1.00;;;6.30;99.90;;;;;;6232277;23;20000;-77
2022/10/05 05:21:18;;;;;;;3.10;0.63;;;6.40;99.90;;;;;;6233361;22;20008;-78
2022/10/05 05:24:06;;;;;;;2.83;0.80;;;6.40;99.90;;;;;;6235991;23;20103;-79
2022/10/05 05:27:08;;;;;;;3.95;0.98;;;6.30;99.90;;;;;;6236315;23;20007;-77
2022/10/05 05:30:00;;;;;;;3.55;1.15;;;6.40;99.90;;;;;;6235312;22;20374;-80
2022/10/05 05:32:59;;;;;;;3.47;0.82;;;6.40;99.90;;;;;;6234072;22;20062;-79
2022/10/05 05:35:49;;;;;;;2.97;0.90;;;6.50;99.90;;;;;;6234713;23;20477;-78
2022/10/05 05:38:17;;;;;;;0.95;0.88;;;6.60;99.90;;;;;;6234931;23;20004;-78
2022/10/05 05:41:04;;;;;;;1.70;0.80;;;6.70;99.90;;;;;;6235764;23;20035;-76
2022/10/05 05:43:55;;;;;;;2.55;0.60;;;6.80;99.90;;;;;;6235691;23;20669;-75
2022/10/05 05:46:27;;;;;;;5.18;0.95;;;6.90;99.90;;;;;;6234220;23;20016;-77
2022/10/05 05:48:55;;;;;;;1.92;1.02;;;6.70;99.90;;;;;;6235019;23;20434;-77
2022/10/05 05:51:34;;;;;;;2.83;1.10;;;6.80;99.90;;;;;;6233740;23;20004;-76
2022/10/05 05:54:14;;;;;;;1.20;1.10;;;7.00;99.90;;;;;;6235766;23;20011;-76
2022/10/05 05:57:03;;;;;;;3.55;0.93;;;7.20;99.90;;;;;;6235901;23;20027;-77
2022/10/05 05:59:44;;;;;;;4.95;1.60;;;7.30;99.90;;;;;;6236828;23;20004;-77
2022/10/05 06:02:15;;;;;;;2.85;1.40;;;7.30;99.90;;;;;;6234476;23;20090;-76
2022/10/05 06:04:46;;;;;;;5.95;2.45;;;7.30;99.90;;;;;;6232437;23;20126;-77
2022/10/05 06:07:17;;;;;;;1.88;1.23;;;7.40;99.90;;;;;;6233054;23;20046;-77
2022/10/05 06:09:52;;;;;;;2.20;1.05;;;7.40;99.90;;;;;;6235347;22;20099;-77
2022/10/05 06:12:33;;;;;;;3.58;1.10;;;7.50;99.90;;;;;;6235644;23;20038;-77
2022/10/05 06:15:23;;;;;;;1.75;1.10;;;7.50;99.90;;;;;;6237334;23;20081;-77
2022/10/05 06:17:55;;;;;;;13.70;9.98;;;7.60;99.90;;;;;;6234497;23;20016;-77
2022/10/05 06:20:38;;;;;;;14.93;11.32;;;7.80;99.90;;;;;;6237172;23;20004;-77
2022/10/05 06:23:20;;;;;;;35.67;25.88;;;8.00;99.90;;;;;;6234978;22;20000;-77
2022/10/05 06:26:14;;;;;;;22.40;16.65;;;8.20;99.90;;;;;;6236621;22;20020;-78
2022/10/05 06:28:41;;;;;;;21.52;15.43;;;8.30;99.90;;;;;;6234868;23;19996;-78
2022/10/05 06:31:41;;;;;;;15.10;10.13;;;8.40;99.90;;;;;;6235289;22;20031;-77
2022/10/05 06:34:27;;;;;;;8.50;4.93;;;8.50;99.90;;;;;;6235226;22;20024;-77
2022/10/05 06:36:58;;;;;;;6.07;3.83;;;8.70;99.90;;;;;;6233452;23;20012;-64
2022/10/05 06:40:04;;;;;;;7.05;5.97;;;8.80;99.90;;;;;;6234532;23;20015;-64
2022/10/05 06:42:40;;;;;;;5.30;2.85;;;9.00;99.90;;;;;;6234687;23;20393;-64
2022/10/05 06:45:26;;;;;;;5.75;4.07;;;9.30;99.90;;;;;;6234850;23;20016;-64
2022/10/05 06:48:24;;;;;;;10.32;7.00;;;9.50;99.90;;;;;;6235352;23;20004;-64
2022/10/05 06:50:59;;;;;;;7.65;5.60;;;9.70;99.90;;;;;;6235280;23;20464;-64
2022/10/05 06:53:35;;;;;;;8.02;5.28;;;9.70;99.90;;;;;;6234505;23;20090;-64
2022/10/05 06:56:08;;;;;;;10.80;5.43;;;9.80;99.90;;;;;;6233655;23;20340;-64
2022/10/05 06:58:39;;;;;;;5.07;3.20;;;10.00;99.90;;;;;;6233868;23;20019;-64
2022/10/05 07:01:29;;;;;;;4.50;2.58;;;10.30;99.90;;;;;;6234810;23;20528;-64
2022/10/05 07:04:28;;;;;;;5.07;2.22;;;10.50;99.90;;;;;;6234976;23;20004;-64
2022/10/05 07:06:59;;;;;;;4.75;2.22;;;10.80;99.90;;;;;;6236057;23;20086;-64
2022/10/05 07:09:40;;;;;;;8.13;3.22;;;11.10;99.90;;;;;;6235553;23;20420;-64
2022/10/05 07:12:34;;;;;;;4.88;2.53;;;11.30;99.90;;;;;;6235855;23;20008;-77
2022/10/05 07:15:05;;;;;;;6.47;2.60;;;11.60;99.90;;;;;;6236650;23;20008;-77
2022/10/05 07:17:41;;;;;;;5.70;2.72;;;11.70;99.90;;;;;;6234104;23;20004;-77
2022/10/05 07:20:28;;;;;;;4.63;2.50;;;11.90;99.90;;;;;;6235478;23;20075;-76
2022/10/05 07:23:08;;;;;;;3.75;2.83;;;12.00;99.90;;;;;;6234712;23;20015;-77
2022/10/05 07:25:49;;;;;;;3.90;2.30;;;12.20;99.90;;;;;;6233730;23;20012;-77
2022/10/05 07:28:42;;;;;;;3.97;2.50;;;12.40;99.90;;;;;;6235218;23;20028;-77
2022/10/05 07:31:26;;;;;;;7.65;2.60;;;12.50;99.90;;;;;;6235321;22;20394;-77
2022/10/05 07:34:07;;;;;;;3.90;2.50;;;12.70;99.90;;;;;;6236694;23;20012;-76
2022/10/05 07:39:55;;;;;;;5.45;2.25;;;12.80;99.90;;;;;;6232738;23;20094;-77
2022/10/05 07:42:33;;;;;;;4.80;2.80;;;12.90;99.90;;;;;;6232240;22;20484;-77
2022/10/05 07:45:22;;;;;;;4.10;2.65;;;12.90;99.90;;;;;;6232785;23;20019;-78
2022/10/05 07:47:53;;;;;;;3.80;2.75;;;13.00;99.90;;;;;;6237088;22;20000;-77
2022/10/05 07:50:34;;;;;;;4.00;2.43;;;13.10;99.90;;;;;;6233984;23;20011;-78
2022/10/05 07:53:34;;;;;;;4.38;2.90;;;13.30;99.90;;;;;;6235613;23;20454;-77
2022/10/05 07:56:06;;;;;;;3.97;2.60;;;13.50;99.90;;;;;;6238042;22;20074;-77
2022/10/05 07:58:49;;;;;;;4.53;2.70;;;13.70;99.90;;;;;;6235022;22;20054;-78
2022/10/05 08:01:25;;;;;;;5.35;2.72;;;13.80;99.90;;;;;;6236276;23;20015;-78
2022/10/05 08:04:08;;;;;;;5.22;2.65;;;14.00;99.90;;;;;;6236661;23;20115;-78
2022/10/05 08:06:36;;;;;;;4.05;2.70;;;14.30;99.90;;;;;;6234331;23;20004;-78
2022/10/05 08:09:44;;;;;;;4.43;2.60;;;14.50;99.90;;;;;;6237208;23;20018;-79
2022/10/05 08:12:30;;;;;;;6.93;2.80;;;14.50;99.90;;;;;;6222985;23;20020;-77
2022/10/05 08:15:06;;;;;;;6.18;2.95;;;14.40;99.90;;;;;;6233591;23;20422;-72
2022/10/05 08:18:21;;;;;;;8.75;2.75;;;14.10;99.90;;;;;;6235169;23;20036;-81
2022/10/05 08:20:53;;;;;;;10.65;2.90;;;14.10;99.90;;;;;;6204045;22;20012;-81
2022/10/05 08:23:22;;;;;;;6.43;2.50;;;14.10;99.90;;;;;;6235342;22;20468;-81
2022/10/05 08:26:13;;;;;;;13.32;2.60;;;14.20;99.90;;;;;;6237644;23;20015;-80
2022/10/05 08:28:54;;;;;;;10.10;2.63;;;14.30;99.90;;;;;;6237071;23;20557;-80
2022/10/05 08:31:23;;;;;;;3.53;2.17;;;14.40;99.90;;;;;;6236758;23;20008;-78
2022/10/05 08:33:55;;;;;;;5.88;2.45;;;14.60;99.90;;;;;;6236242;23;20001;-82
2022/10/05 08:36:43;;;;;;;5.63;2.40;;;14.60;99.90;;;;;;6233789;23;20095;-80
2022/10/05 08:39:17;;;;;;;4.63;1.92;;;14.80;99.90;;;;;;6236311;23;20075;-80
2022/10/05 08:41:59;;;;;;;4.43;2.03;;;14.90;99.90;;;;;;6234347;22;20323;-81
2022/10/05 08:45:09;;;;;;;3.63;1.65;;;15.10;99.90;;;;;;6237129;22;20082;-82
2022/10/05 08:47:56;;;;;;;5.90;2.20;;;15.20;99.90;;;;;;6239349;23;20012;-81
2022/10/05 08:50:45;;;;;;;5.47;2.55;;;15.30;99.90;;;;;;6236334;23;20000;-64
2022/10/05 08:53:26;;;;;;;8.52;2.10;;;15.40;99.90;;;;;;6236073;23;20007;-64
2022/10/05 08:56:24;;;;;;;4.30;2.15;;;15.50;99.90;;;;;;6236105;23;20015;-64
2022/10/05 08:58:58;;;;;;;4.53;2.17;;;15.60;99.90;;;;;;6192604;23;20012;-64
2022/10/05 09:01:40;;;;;;;4.55;2.28;;;15.70;99.90;;;;;;6232946;23;20004;-64
2022/10/05 09:04:34;;;;;;;3.92;1.98;;;15.70;99.90;;;;;;6235983;23;20107;-64
2022/10/05 09:07:09;;;;;;;2.15;1.70;;;15.70;99.90;;;;;;6236507;22;20008;-64
2022/10/05 09:09:52;;;;;;;3.47;2.10;;;15.90;99.90;;;;;;6235678;22;20023;-64
2022/10/05 09:12:34;;;;;;;2.47;1.73;;;16.00;99.90;;;;;;6236349;23;20035;-64
2022/10/05 09:15:15;;;;;;;2.35;2.15;;;16.10;99.90;;;;;;6235386;23;20007;-64
2022/10/05 09:18:00;;;;;;;3.78;2.25;;;16.20;99.90;;;;;;6236046;23;20020;-64
2022/10/05 09:20:34;;;;;;;5.43;2.22;;;16.10;99.90;;;;;;6236658;23;20024;-64
2022/10/05 09:23:11;;;;;;;2.53;1.92;;;16.00;99.90;;;;;;6234649;23;20011;-64
2022/10/05 09:25:50;;;;;;;3.00;2.08;;;15.80;99.90;;;;;;6235706;22;20040;-64
2022/10/05 09:28:23;;;;;;;4.15;2.20;;;15.80;99.90;;;;;;6237300;23;20004;-65
2022/10/05 09:30:57;;;;;;;5.85;1.77;;;15.80;99.90;;;;;;6235720;23;20502;-65
2022/10/05 09:33:37;;;;;;;6.35;1.80;;;15.90;99.90;;;;;;6235179;23;20507;-64
2022/10/05 09:36:53;;;;;;;5.05;1.77;;;16.00;99.90;;;;;;6233435;23;20393;-65
2022/10/05 09:39:41;;;;;;;2.63;1.63;;;16.20;99.90;;;;;;6235376;22;20075;-64
2022/10/05 09:42:10;;;;;;;2.10;1.50;;;16.40;99.90;;;;;;6235194;23;20600;-64
2022/10/05 09:45:15;;;;;;;3.17;1.73;;;16.60;99.90;;;;;;6231681;23;20611;-64
2022/10/05 09:47:46;;;;;;;4.03;1.65;;;16.80;99.90;;;;;;6186096;22;20016;-64
2022/10/05 09:50:56;;;;;;;4.82;1.63;;;17.00;99.90;;;;;;6236405;23;20007;-64
2022/10/05 09:53:39;;;;;;;1.80;1.20;;;17.10;99.90;;;;;;6236540;23;20010;-64
2022/10/05 09:56:23;;;;;;;3.05;1.40;;;17.20;99.90;;;;;;6237176;23;20092;-65
2022/10/05 09:59:07;;;;;;;3.25;1.73;;;17.40;99.90;;;;;;6237051;22;20104;-65
2022/10/05 10:02:15;;;;;;;2.35;1.23;;;17.50;99.90;;;;;;6235713;23;20031;-65
2022/10/05 10:05:05;;;;;;;3.55;1.42;;;17.50;99.90;;;;;;6234212;23;20012;-65
2022/10/05 10:07:55;;;;;;;3.83;1.55;;;17.60;99.90;;;;;;6232158;23;20007;-64
2022/10/05 10:10:55;;;;;;;6.13;1.90;;;17.80;99.90;;;;;;6234392;22;20004;-65
2022/10/05 10:14:04;;;;;;;4.80;1.80;;;17.80;99.90;;;;;;6235854;23;20004;-65
2022/10/05 10:16:41;;;;;;;3.28;1.17;;;17.90;99.90;;;;;;6210762;22;20342;-65
2022/10/05 10:19:13;;;;;;;6.53;2.20;;;17.90;99.90;;;;;;6235688;23;20247;-65
2022/10/05 10:21:38;;;;;;;4.33;1.47;;;17.90;99.90;;;;;;6235277;23;20011;-65
2022/10/05 10:24:13;;;;;;;1.80;1.20;;;18.00;99.90;;;;;;6236381;23;20004;-65
2022/10/05 10:27:00;;;;;;;1.80;0.88;;;17.90;99.90;;;;;;6236225;23;20011;-65
2022/10/05 10:29:58;;;;;;;8.25;1.10;;;17.80;99.90;;;;;;6234101;23;20035;-65
2022/10/05 10:32:53;;;;;;;1.52;1.20;;;17.70;99.90;;;;;;6189787;23;20594;-65
2022/10/05 10:35:30;;;;;;;4.63;1.80;;;17.70;99.90;;;;;;6235105;22;20491;-65
2022/10/05 10:38:06;;;;;;;1.88;1.33;;;17.80;99.90;;;;;;6234847;23;20004;-65
2022/10/05 10:41:04;;;;;;;3.08;1.27;;;17.90;99.90;;;;;;6235506;23;20000;-65
2022/10/05 10:43:58;;;;;;;3.10;1.65;;;17.90;99.90;;;;;;6232754;23;20194;-66
2022/10/05 10:46:35;;;;;;;1.85;1.30;;;18.00;99.90;;;;;;6232970;23;20008;-65
2022/10/05 10:49:20;;;;;;;5.22;2.00;;;18.10;99.90;;;;;;6235717;23;19996;-65
2022/10/05 10:52:04;;;;;;;4.40;1.20;;;18.10;99.90;;;;;;6231511;22;20031;-66
2022/10/05 10:55:12;;;;;;;7.30;1.17;;;18.20;99.90;;;;;;6233829;23;20071;-65
2022/10/05 10:58:00;;;;;;;2.85;1.10;;;18.30;99.90;;;;;;6234474;23;20035;-65
2022/10/05 11:00:43;;;;;;;2.55;1.02;;;18.40;99.90;;;;;;6233335;22;20008;-65
2022/10/05 11:03:37;;;;;;;4.07;1.75;;;18.50;99.90;;;;;;6234755;23;20000;-65
2022/10/05 11:06:29;;;;;;;4.38;1.40;;;18.60;99.90;;;;;;6234622;22;20036;-65
2022/10/05 11:09:16;;;;;;;1.52;1.00;;;18.50;99.90;;;;;;6229885;23;20330;-65
2022/10/05 11:12:28;;;;;;;5.30;1.17;;;18.60;99.90;;;;;;6234948;22;20023;-65
2022/10/05 11:15:03;;;;;;;3.45;1.30;;;18.70;99.90;;;;;;6235316;23;20000;-65
2022/10/05 11:17:56;;;;;;;2.85;1.20;;;18.70;99.90;;;;;;6232876;23;20028;-65
2022/10/05 11:21:00;;;;;;;1.60;1.15;;;18.80;99.90;;;;;;6193275;22;20116;-65
2022/10/05 11:23:53;;;;;;;8.52;1.20;;;18.80;99.90;;;;;;6234102;23;20031;-64
2022/10/05 11:26:40;;;;;;;6.18;1.50;;;18.90;99.90;;;;;;6234153;23;20471;-65
2022/10/05 11:29:08;;;;;;;1.50;1.17;;;18.90;99.90;;;;;;6235265;23;20079;-65
2022/10/05 11:31:36;;;;;;;2.70;1.40;;;18.80;99.90;;;;;;6232160;23;20030;-65
2022/10/05 11:34:22;;;;;;;10.15;1.70;;;18.80;99.90;;;;;;6233424;23;20058;-65
2022/10/05 11:37:21;;;;;;;6.65;1.55;;;18.70;99.90;;;;;;6184916;23;20027;-65
2022/10/05 11:40:25;;;;;;;2.03;1.15;;;18.60;99.90;;;;;;6232385;23;20765;-64
2022/10/05 11:43:27;;;;;;;2.63;1.55;;;18.60;99.90;;;;;;6235117;22;20008;-82
2022/10/05 11:46:04;;;;;;;3.13;1.23;;;18.50;99.90;;;;;;6182326;23;20095;-84
2022/10/05 11:48:45;;;;;;;2.78;1.30;;;18.40;99.90;;;;;;6236839;23;20015;-84
2022/10/05 11:51:10;;;;;;;3.15;1.50;;;18.40;99.90;;;;;;6242313;23;19996;-84
2022/10/05 11:53:58;;;;;;;6.53;1.60;;;18.50;99.90;;;;;;6244487;23;20187;-83
2022/10/05 11:56:40;;;;;;;6.43;2.38;;;18.50;99.90;;;;;;6244885;23;20000;-85
2022/10/05 11:59:25;;;;;;;2.42;1.42;;;18.40;99.90;;;;;;6244055;23;20008;-86
2022/10/05 12:02:05;;;;;;;2.25;1.30;;;18.50;99.90;;;;;;6238357;23;20007;-64
2022/10/05 12:04:52;;;;;;;4.90;1.40;;;18.50;99.90;;;;;;6226050;23;20142;-64
2022/10/05 12:07:37;;;;;;;4.70;1.70;;;18.50;99.90;;;;;;6225491;23;20759;-65
2022/10/05 12:10:27;;;;;;;4.90;2.05;;;18.50;99.90;;;;;;6228252;22;20016;-64
2022/10/05 12:13:10;;;;;;;3.47;1.70;;;18.60;99.90;;;;;;6227589;23;20005;-65
2022/10/05 12:15:53;;;;;;;5.55;1.80;;;18.70;99.90;;;;;;6229819;23;20004;-65
2022/10/05 12:18:31;;;;;;;7.80;2.05;;;18.70;99.90;;;;;;6225458;23;20004;-65
2022/10/05 12:21:06;;;;;;;4.78;1.88;;;18.80;99.90;;;;;;6230114;23;20004;-64
2022/10/05 12:23:40;;;;;;;5.85;2.78;;;18.80;99.90;;;;;;6228035;23;20075;-63
2022/10/05 12:26:13;;;;;;;5.28;2.45;;;18.90;99.90;;;;;;6232278;23;20016;-62
2022/10/05 12:29:12;;;;;;;6.72;2.40;;;18.90;99.90;;;;;;6228691;23;20076;-63
2022/10/05 12:31:56;;;;;;;5.63;2.10;;;18.80;99.90;;;;;;6229585;22;20090;-63
2022/10/05 12:34:40;;;;;;;12.60;2.38;;;18.90;99.90;;;;;;6234563;23;20014;-65
2022/10/05 12:37:35;;;;;;;9.00;1.77;;;18.90;99.90;;;;;;6235853;22;20040;-63
2022/10/05 12:40:25;;;;;;;6.35;2.72;;;18.90;99.90;;;;;;6236697;23;20058;-64
2022/10/05 12:43:03;;;;;;;6.72;3.10;;;18.90;99.90;;;;;;6189962;23;20444;-64
2022/10/05 12:45:37;;;;;;;5.22;2.88;;;18.80;99.90;;;;;;6234397;23;20012;-63
2022/10/05 12:48:21;;;;;;;6.68;3.47;;;18.70;99.90;;;;;;6235319;23;20077;-64
2022/10/05 12:50:47;;;;;;;5.28;2.78;;;18.60;99.90;;;;;;6236044;23;20008;-64
2022/10/05 12:53:27;;;;;;;5.90;2.50;;;18.50;99.90;;;;;;6236207;23;20000;-64
2022/10/05 12:56:04;;;;;;;6.50;2.55;;;18.40;99.90;;;;;;6236120;23;20008;-64
2022/10/05 12:58:40;;;;;;;4.03;2.17;;;18.50;99.90;;;;;;6234150;23;20031;-64
2022/10/05 13:01:06;;;;;;;3.60;2.05;;;18.40;99.90;;;;;;6231686;23;20027;-64
2022/10/05 13:04:17;;;;;;;4.40;1.98;;;18.40;99.90;;;;;;6233259;23;20008;-64
2022/10/05 13:07:20;;;;;;;3.72;2.40;;;18.30;99.90;;;;;;6189818;23;20023;-64
2022/10/05 13:09:52;;;;;;;;;;;18.30;99.90;;;;;;6235471;22;20008;-64
2022/10/05 13:12:34;;;;;;;5.35;2.17;;;18.20;99.90;;;;;;6231969;22;19978;-64
2022/10/05 13:15:24;;;;;;;5.88;2.85;;;18.20;99.90;;;;;;6235132;23;20095;-64
2022/10/05 13:18:19;;;;;;;4.43;2.53;;;18.20;99.90;;;;;;6233266;22;20012;-64
2022/10/05 13:21:26;;;;;;;14.23;5.95;;;18.20;99.90;;;;;;6230744;23;20028;-65
2022/10/05 13:24:11;;;;;;;23.08;3.78;;;18.50;99.90;;;;;;6115814;23;20435;-65
2022/10/05 13:26:42;;;;;;;12.93;2.70;;;18.60;99.90;;;;;;6141468;23;20009;-65
2022/10/05 13:29:22;;;;;;;7.35;3.00;;;18.60;99.90;;;;;;6200202;22;20012;-65
2022/10/05 13:31:55;;;;;;;4.57;2.42;;;18.60;99.90;;;;;;6236361;23;20724;-63
2022/10/05 13:34:25;;;;;;;3.20;2.33;;;18.50;99.90;;;;;;6237085;23;20011;-63
2022/10/05 13:37:00;;;;;;;4.03;2.17;;;18.30;99.90;;;;;;6236029;23;20529;-63
2022/10/05 13:39:39;;;;;;;4.57;2.60;;;18.30;99.90;;;;;;6235252;23;20071;-63
2022/10/05 13:42:18;;;;;;;7.30;2.90;;;18.20;99.90;;;;;;6234800;23;20004;-63
2022/10/05 13:44:57;;;;;;;6.05;2.88;;;18.20;99.90;;;;;;6235974;23;20098;-63
2022/10/05 13:48:00;;;;;;;5.63;2.97;;;18.20;99.90;;;;;;6233755;23;20054;-63
2022/10/05 13:50:36;;;;;;;3.08;2.45;;;18.20;99.90;;;;;;6214634;23;20016;-64
2022/10/05 13:53:43;;;;;;;5.45;3.05;;;18.10;99.90;;;;;;6234817;23;20019;-63
2022/10/05 13:56:21;;;;;;;9.85;3.67;;;18.00;99.90;;;;;;6190661;23;20012;-64
2022/10/05 13:58:58;;;;;;;5.05;3.42;;;17.90;99.90;;;;;;6234693;23;20012;-64
2022/10/05 14:01:50;;;;;;;6.95;3.15;;;17.90;99.90;;;;;;6232326;23;20004;-63
2022/10/05 14:04:20;;;;;;;8.13;3.65;;;17.90;99.90;;;;;;6225734;23;20349;-62
2022/10/05 14:06:47;;;;;;;3.83;3.38;;;17.80;99.90;;;;;;6233056;23;20091;-65
2022/10/05 14:09:27;;;;;;;5.35;3.08;;;17.90;99.90;;;;;;6232373;23;20011;-64
2022/10/05 14:12:13;;;;;;;8.48;4.65;;;17.90;99.90;;;;;;6234542;22;20658;-64
2022/10/05 14:14:57;;;;;;;5.70;3.30;;;17.70;99.90;;;;;;6234502;23;20372;-64
2022/10/05 14:17:32;;;;;;;7.25;3.55;;;17.60;99.90;;;;;;6234873;23;20001;-64